ADDS METAR Data INFO
IDs: Format: Raw Decoded Include TAF

Data at: 0248 UTC 17 Jan 2018

KFSE 170235Z AUTO 19015KT 10SM CLR M18/M22 A3038 RMK AO2
KFSE 170215Z AUTO 20016KT 10SM CLR M18/M22 A3039 RMK AO2
KFSE 170155Z AUTO 20015KT 10SM CLR M18/M22 A3040 RMK AO2
KFSE 170135Z AUTO 20015KT 10SM CLR M18/M22 A3041 RMK AO2
KFSE 170115Z AUTO 19015KT 10SM CLR M18/M22 A3042 RMK AO2
KFSE 170055Z AUTO 20014KT 10SM CLR M18/M23 A3043 RMK AO2
KFSE 170035Z AUTO 20015KT 10SM CLR M18/M23 A3044 RMK AO2
KFSE 170015Z AUTO 20014KT 10SM CLR M18/M23 A3045 RMK AO2
KFSE 162355Z AUTO 20012KT 10SM CLR M18/M23 A3047 RMK AO2
KFSE 162335Z AUTO 19013KT 10SM CLR M18/M23 A3047 RMK AO2
KFSE 162315Z AUTO 19011KT 10SM CLR M19/M23 A3048 RMK AO2
KFSE 162255Z AUTO 19013KT 10SM CLR M19/M23 A3049 RMK AO2
KFSE 162235Z AUTO 20013KT 10SM CLR M19/M24 A3050 RMK AO2
KFSE 162215Z AUTO 19012KT 10SM CLR M19/M24 A3052 RMK AO2
KFSE 162155Z AUTO 20012KT 10SM CLR M19/M24 A3052 RMK AO2
KFSE 162135Z AUTO 19011KT 10SM CLR M19/M24 A3053 RMK AO2
KFSE 162115Z AUTO 20012KT 10SM CLR M20/M24 A3054 RMK AO2
KFSE 162055Z AUTO 19011KT 10SM SCT110 M20/M25 A3055 RMK AO2
KFSE 162035Z AUTO 20011KT 10SM SCT110 M20/M25 A3056 RMK AO2
KFSE 162015Z AUTO 19011KT 10SM CLR M21/M26 A3057 RMK AO2
KFSE 161955Z AUTO 19009KT 10SM CLR M19/M25 A3058 RMK AO2
KFSE 161935Z AUTO 19008KT 10SM CLR M20/M26 A3059 RMK AO2
KFSE 161915Z AUTO 20009KT 10SM CLR M21/M26 A3059 RMK AO2
KFSE 161855Z AUTO 20009KT 10SM CLR M20/M26 A3060 RMK AO2
KFSE 161835Z AUTO 21008KT 10SM CLR M21/M26 A3062 RMK AO2
KFSE 161815Z AUTO 21008KT 10SM CLR M21/M26 A3062 RMK AO2
KFSE 161755Z AUTO 20006KT 10SM CLR M22/M27 A3063 RMK AO2
KFSE 161735Z AUTO 19008KT 10SM CLR M22/M27 A3064 RMK AO2
KFSE 161715Z AUTO 20008KT 10SM CLR M23/M27 A3065 RMK AO2
KFSE 161655Z AUTO 19008KT 10SM CLR M24/M28 A3066 RMK AO2
KFSE 161635Z AUTO 19007KT 10SM CLR M24/M28 A3066 RMK AO2
KFSE 161615Z AUTO 19007KT 10SM CLR M26/M29 A3066 RMK AO2
KFSE 161555Z AUTO 20007KT 5SM HZ CLR M26/M29 A3067 RMK AO2
KFSE 161535Z AUTO 21007KT 2 1/2SM HZ CLR M26/M29 A3067 RMK AO2
KFSE 161515Z AUTO 21006KT 3SM HZ CLR M27/M29 A3067 RMK AO2
KFSE 161455Z AUTO 20004KT 7SM CLR M27/M30 A3068 RMK AO2
KFSE 161436Z AUTO 00000KT 5SM HZ CLR M28/M32 A3068 RMK AO2
KFSE 161415Z AUTO 19003KT 10SM CLR M29/M32 A3068 RMK AO2
KFSE 161355Z AUTO 00000KT 10SM CLR M29/M32 A3069 RMK AO2
KFSE 161336Z AUTO 00000KT 10SM CLR M28/M32 A3069 RMK AO2
KFSE 161315Z AUTO 21003KT 10SM CLR M28/M32 A3069 RMK AO2
KFSE 161255Z AUTO 00000KT 10SM CLR M28/M32 A3070 RMK AO2
KFSE 161236Z AUTO 25004KT 7SM CLR M28/M32 A3071 RMK AO2
KFSE 161215Z AUTO 00000KT 10SM CLR M28/M32 A3070 RMK AO2
KFSE 161155Z AUTO 00000KT 7SM CLR M28/M31 A3070 RMK AO2
KFSE 161135Z AUTO 00000KT 7SM SCT006 M27/M31 A3071 RMK AO2
KFSE 161115Z AUTO 31004KT 10SM OVC006 M27/M30 A3072 RMK AO2
KFSE 161055Z AUTO 30003KT 10SM OVC006 M27/M29 A3073 RMK AO2
KFSE 161035Z AUTO 31003KT 10SM OVC006 M26/M29 A3073 RMK AO2
KFSE 161015Z AUTO 31004KT 10SM OVC006 M26/M29 A3073 RMK AO2
KFSE 160955Z AUTO 31005KT 10SM OVC006 M26/M28 A3073 RMK AO2
KFSE 160935Z AUTO 32003KT 10SM OVC006 M26/M28 A3073 RMK AO2
KFSE 160915Z AUTO 33004KT 10SM OVC006 M26/M28 A3074 RMK AO2
KFSE 160855Z AUTO 34006KT 7SM OVC008 M26/M28 A3074 RMK AO2
KFSE 160835Z AUTO 33005KT 7SM OVC008 M26/M28 A3074 RMK AO2
KFSE 160815Z AUTO 34005KT 7SM OVC008 M26/M28 A3074 RMK AO2
KFSE 160755Z AUTO 33007KT 7SM OVC008 M26/M28 A3074 RMK AO2
KFSE 160735Z AUTO 33009KT 4SM HZ OVC008 M26/M28 A3074 RMK AO2
KFSE 160715Z AUTO 33010KT 10SM OVC008 M26/M28 A3074 RMK AO2
KFSE 160655Z AUTO 33011KT 10SM SCT007 OVC010 M26/M28 A3073 RMK AO2
KFSE 160635Z AUTO 33007KT 10SM OVC007 M26/M28 A3073 RMK AO2
KFSE 160615Z AUTO 32007KT 10SM OVC007 M26/M28 A3073 RMK AO2
KFSE 160555Z AUTO 34004KT 10SM OVC009 M26/M28 A3073 RMK AO2
KFSE 160535Z AUTO 34005KT 10SM OVC011 M26/M28 A3073 RMK AO2
KFSE 160515Z AUTO 34010KT 10SM OVC011 M26/M28 A3073 RMK AO2
KFSE 160455Z AUTO 34008KT 10SM OVC011 M26/M28 A3073 RMK AO2
KFSE 160435Z AUTO 34011KT 10SM OVC013 M26/M28 A3073 RMK AO2
KFSE 160415Z AUTO 34013KT 10SM OVC013 M26/M28 A3074 RMK AO2
KFSE 160355Z AUTO 33012KT 10SM OVC013 M25/M28 A3073 RMK AO2
KFSE 160335Z AUTO 34011KT 10SM OVC013 M25/M28 A3072 RMK AO2 PWINO
KFSE 160315Z AUTO 34009KT 10SM OVC013 M24/M28 A3071 RMK AO2
KFSE 160255Z AUTO 34012KT 10SM OVC013 M24/M28 A3072 RMK AO2
KFSE 160235Z AUTO 34010KT 10SM OVC011 M24/M28 A3072 RMK AO2
KFSE 160215Z AUTO 34013KT 10SM OVC013 M24/M28 A3072 RMK AO2
KFSE 160155Z AUTO 33011KT 10SM OVC013 M24/M28 A3072 RMK AO2
KFSE 160135Z AUTO 34010KT 10SM BKN013 OVC032 M24/M28 A3071 RMK AO2
KFSE 160115Z AUTO 34010KT 10SM SCT015 OVC032 M24/M28 A3071 RMK AO2
KFSE 160055Z AUTO 34012KT 10SM SCT015 OVC032 M24/M28 A3071 RMK AO2
KFSE 160039Z AUTO 34012KT 10SM OVC015 M24/M28 A3071 RMK AO2
KFSE 160015Z AUTO 33011KT 10SM OVC015 M24/M27 A3070 RMK AO2
KFSE 152355Z AUTO 33011KT 10SM OVC015 M24/M27 A3069 RMK AO2
KFSE 152335Z AUTO 33012KT 10SM OVC015 M23/M27 A3068 RMK AO2
KFSE 152315Z AUTO 33011KT 10SM BKN015 M23/M27 A3067 RMK AO2
KFSE 152255Z AUTO 33009KT 10SM SCT015 M23/M27 A3067 RMK AO2
KFSE 152235Z AUTO 33010KT 10SM CLR M22/M27 A3066 RMK AO2
KFSE 152217Z AUTO 34010KT 10SM SCT017 M22/M27 A3066 RMK AO2
KFSE 152155Z AUTO 33011KT 10SM OVC015 M22/M27 A3064 RMK AO2
KFSE 152135Z AUTO 34012KT 10SM OVC015 M22/M27 A3064 RMK AO2
KFSE 152115Z AUTO 34014KT 10SM SCT009 BKN015 M22/M27 A3063 RMK AO2
KFSE 152055Z AUTO 34013KT 10SM BKN011 M21/M27 A3062 RMK AO2
KFSE 152035Z AUTO 34013KT 7SM OVC011 M21/M27 A3061 RMK AO2
KFSE 152015Z AUTO 34012KT 5SM HZ BKN011 M21/M27 A3061 RMK AO2
KFSE 151955Z AUTO 33013KT 4SM HZ OVC011 M22/M27 A3060 RMK AO2
KFSE 151935Z AUTO 34015KT 4SM HZ OVC011 M22/M27 A3060 RMK AO2
KFSE 151915Z AUTO 33014KT 3SM HZ OVC013 M22/M27 A3061 RMK AO2
KFSE 151855Z AUTO 33013KT 3SM HZ OVC013 M22/M27 A3061 RMK AO2
KFSE 151835Z AUTO 34016KT 2SM HZ OVC013 M22/M28 A3061 RMK AO2
KFSE 151815Z AUTO 34014KT 2 1/2SM HZ OVC013 M23/M28 A3060 RMK AO2
KFSE 151755Z AUTO 33016KT 2SM HZ OVC011 M23/M28 A3061 RMK AO2
KFSE 151735Z AUTO 34017KT 1 1/4SM HZ OVC011 M23/M28 A3060 RMK AO2
KFSE 151715Z AUTO 34016KT 1 3/4SM HZ OVC011 M23/M28 A3059 RMK AO2
KFSE 151655Z AUTO 34015KT 1 3/4SM HZ OVC011 M23/M28 A3059 RMK AO2
KFSE 151635Z AUTO 34016KT 1 3/4SM HZ OVC009 M23/M28 A3059 RMK AO2
KFSE 151615Z AUTO 34015KT 1 1/2SM HZ BKN009 OVC018 M24/M28 A3058 RMK AO2
KFSE 151555Z AUTO 33015KT 1 1/2SM HZ BKN012 OVC018 M24/M28 A3057 RMK AO2
KFSE 151535Z AUTO 33015KT 1 3/4SM HZ OVC012 M24/M27 A3057 RMK AO2
KFSE 151515Z AUTO 33014KT 1 3/4SM HZ OVC012 M24/M27 A3056 RMK AO2
KFSE 151455Z AUTO 34015G18KT 1 3/4SM HZ OVC012 M24/M27 A3054 RMK AO2